Time;durP1;ratioP1;P1;durP2;ratioP2;P2;SDS_P1;SDS_P2;PMS_P1;PMS_P2;Temp;Humidity;BMP_temperature;BMP_pressure;BME280_temperature;BME280_humidity;BME280_pressure;Samples;Min_cycle;Max_cycle;Signal;HPM_P1;HPM_P2
2023/03/24 00:01:19;;;;;;;0.20;0.20;;;;;;;;;;5051224;28;20120;-70
2023/03/24 00:03:47;;;;;;;0.20;0.20;;;;;;;;;;5052390;28;20029;-68
2023/03/24 00:06:13;;;;;;;0.20;0.20;;;;;;;;;;5051970;28;20100;-68
2023/03/24 00:08:40;;;;;;;0.25;0.25;;;;;;;;;;5051915;28;20025;-69
2023/03/24 00:11:10;;;;;;;0.20;0.20;;;;;;;;;;5051569;28;20056;-68
2023/03/24 00:13:37;;;;;;;0.28;0.28;;;;;;;;;;5051972;28;20029;-68
2023/03/24 00:16:07;;;;;;;0.20;0.20;;;;;;;;;;5052187;28;20470;-69
2023/03/24 00:18:33;;;;;;;0.20;0.20;;;;;;;;;;5050730;28;20629;-68
2023/03/24 00:20:59;;;;;;;0.20;0.20;;;;;;;;;;5052019;28;20074;-68
2023/03/24 00:23:32;;;;;;;21.73;3.70;;;;;;;;;;5051809;28;20378;-68
2023/03/24 00:26:03;;;;;;;5.40;2.05;;;;;;;;;;5051875;28;20106;-68
2023/03/24 00:28:32;;;;;;;0.20;0.20;;;;;;;;;;5051921;28;20017;-68
2023/03/24 00:30:58;;;;;;;0.20;0.20;;;;;;;;;;5051731;28;20025;-68
2023/03/24 00:33:24;;;;;;;0.20;0.20;;;;;;;;;;5051708;28;20056;-67
2023/03/24 00:35:51;;;;;;;0.52;0.52;;;;;;;;;;5050314;28;20036;-68
2023/03/24 00:38:18;;;;;;;0.20;0.20;;;;;;;;;;5051645;28;20465;-68
2023/03/24 00:40:45;;;;;;;0.82;0.82;;;;;;;;;;5051516;28;20074;-68
2023/03/24 00:43:12;;;;;;;0.57;0.57;;;;;;;;;;5051517;28;20120;-68
2023/03/24 00:45:44;;;;;;;0.25;0.25;;;;;;;;;;5051522;28;20473;-68
2023/03/24 00:48:11;;;;;;;0.20;0.20;;;;;;;;;;5051637;28;20013;-69
2023/03/24 00:50:37;;;;;;;0.20;0.20;;;;;;;;;;5050064;28;20120;-69
2023/03/24 00:53:03;;;;;;;1.92;1.83;;;;;;;;;;5051687;28;20041;-68
2023/03/24 00:55:29;;;;;;;0.80;0.80;;;;;;;;;;5051479;28;20065;-69
2023/03/24 00:57:55;;;;;;;0.20;0.20;;;;;;;;;;5051346;28;20049;-68
2023/03/24 01:00:22;;;;;;;1.48;1.08;;;;;;;;;;5051064;28;20033;-67
2023/03/24 01:02:52;;;;;;;0.20;0.20;;;;;;;;;;5051230;28;20027;-68
2023/03/24 01:05:19;;;;;;;4.22;3.90;;;;;;;;;;5051132;28;20370;-68
2023/03/24 01:07:50;;;;;;;2.17;1.17;;;;;;;;;;5050181;28;20558;-67
2023/03/24 01:10:18;;;;;;;1.80;1.65;;;;;;;;;;5051124;28;20021;-68
2023/03/24 01:12:44;;;;;;;0.20;0.20;;;;;;;;;;5051181;28;20083;-68
2023/03/24 01:15:15;;;;;;;0.20;0.20;;;;;;;;;;5051242;28;20481;-68
2023/03/24 01:17:41;;;;;;;0.20;0.20;;;;;;;;;;5051100;28;20025;-69
2023/03/24 01:20:09;;;;;;;0.20;0.20;;;;;;;;;;5050660;28;20044;-68
2023/03/24 01:22:36;;;;;;;0.30;0.30;;;;;;;;;;5049752;28;20172;-67
2023/03/24 01:25:06;;;;;;;0.85;0.75;;;;;;;;;;5051204;28;20033;-69
2023/03/24 01:27:32;;;;;;;0.47;0.47;;;;;;;;;;5051150;28;20018;-68
2023/03/24 01:30:01;;;;;;;0.28;0.28;;;;;;;;;;5050927;28;20025;-69
2023/03/24 01:32:28;;;;;;;0.40;0.40;;;;;;;;;;5051258;28;20021;-68
2023/03/24 01:34:54;;;;;;;0.20;0.20;;;;;;;;;;5051008;28;20079;-67
2023/03/24 01:37:22;;;;;;;0.50;0.50;;;;;;;;;;5050999;28;20044;-68
2023/03/24 01:39:48;;;;;;;0.77;0.68;;;;;;;;;;5050631;28;20029;-68
2023/03/24 01:42:19;;;;;;;0.40;0.40;;;;;;;;;;5049723;28;20489;-69
2023/03/24 01:44:46;;;;;;;3.50;2.20;;;;;;;;;;5050818;28;20485;-69
2023/03/24 01:47:13;;;;;;;0.73;0.73;;;;;;;;;;5050759;28;20029;-69
2023/03/24 01:49:45;;;;;;;0.30;0.30;;;;;;;;;;5050847;28;20524;-69
2023/03/24 01:52:15;;;;;;;0.22;0.22;;;;;;;;;;5050699;28;20050;-68
2023/03/24 01:54:45;;;;;;;0.20;0.20;;;;;;;;;;5050454;28;20399;-69
2023/03/24 01:57:14;;;;;;;0.50;0.50;;;;;;;;;;5049424;28;20104;-68
2023/03/24 01:59:41;;;;;;;2.05;1.95;;;;;;;;;;5050714;28;20381;-68
2023/03/24 02:02:08;;;;;;;0.20;0.20;;;;;;;;;;5050582;28;20492;-68
2023/03/24 02:04:37;;;;;;;0.30;0.30;;;;;;;;;;5050685;28;20029;-69
2023/03/24 02:07:20;;;;;;;0.30;0.30;;;;;;;;;;5050481;28;20033;-68
2023/03/24 02:09:47;;;;;;;0.65;0.65;;;;;;;;;;5050342;28;20497;-68
2023/03/24 02:12:13;;;;;;;0.30;0.30;;;;;;;;;;5050634;28;20026;-67
2023/03/24 02:14:39;;;;;;;0.20;0.20;;;;;;;;;;5049267;28;20025;-68
2023/03/24 02:17:26;;;;;;;0.20;0.20;;;;;;;;;;5050524;28;20104;-68
2023/03/24 02:20:13;;;;;;;0.30;0.30;;;;;;;;;;5050032;28;20049;-67
2023/03/24 02:22:42;;;;;;;1.15;1.05;;;;;;;;;;5050498;28;20033;-67
2023/03/24 02:25:29;;;;;;;0.30;0.30;;;;;;;;;;5050594;28;20062;-68
2023/03/24 02:28:14;;;;;;;0.30;0.30;;;;;;;;;;5050268;28;20025;-71
2023/03/24 02:30:46;;;;;;;0.20;0.20;;;;;;;;;;5040144;28;20056;-68
2023/03/24 02:33:12;;;;;;;;;;;;;;;;;;5032391;28;20101;-67
2023/03/24 02:35:39;;;;;;;0.25;0.25;;;;;;;;;;5034048;28;19909;-68
2023/03/24 02:38:05;;;;;;;0.20;0.20;;;;;;;;;;5033826;28;20363;-67
2023/03/24 02:40:35;;;;;;;0.50;0.50;;;;;;;;;;5033752;28;20509;-68
2023/03/24 02:43:24;;;;;;;0.30;0.30;;;;;;;;;;5033935;28;20021;-68
2023/03/24 02:46:12;;;;;;;0.40;0.40;;;;;;;;;;5033839;28;20033;-68
2023/03/24 02:48:45;;;;;;;0.30;0.30;;;;;;;;;;5033964;28;20045;-67
2023/03/24 02:51:14;;;;;;;0.57;0.57;;;;;;;;;;5032452;28;20099;-68
2023/03/24 02:53:49;;;;;;;6.60;1.92;;;;;;;;;;5033674;28;20029;-67
2023/03/24 02:56:28;;;;;;;0.20;0.20;;;;;;;;;;5033537;28;20021;-68
2023/03/24 02:59:03;;;;;;;0.30;0.30;;;;;;;;;;5033609;28;20036;-67
2023/03/24 03:01:42;;;;;;;0.20;0.20;;;;;;;;;;5033550;28;20075;-69
2023/03/24 03:04:11;;;;;;;0.20;0.20;;;;;;;;;;5032882;28;20021;-67
2023/03/24 03:06:42;;;;;;;2.72;1.10;;;;;;;;;;5052943;28;20029;-67
2023/03/24 03:09:16;;;;;;;0.30;0.30;;;;;;;;;;5053160;28;20059;-67
2023/03/24 03:11:43;;;;;;;0.20;0.20;;;;;;;;;;5053324;28;20021;-69
2023/03/24 03:14:12;;;;;;;0.30;0.30;;;;;;;;;;5051960;28;20099;-67
2023/03/24 03:16:52;;;;;;;0.20;0.20;;;;;;;;;;5053197;28;20017;-67
2023/03/24 03:19:32;;;;;;;0.20;0.20;;;;;;;;;;5051787;28;20045;-68
2023/03/24 03:22:00;;;;;;;20.17;3.75;;;;;;;;;;5051983;28;20082;-68
2023/03/24 03:24:28;;;;;;;0.68;0.68;;;;;;;;;;5052919;28;20029;-68
2023/03/24 03:27:02;;;;;;;0.20;0.20;;;;;;;;;;5053007;28;20033;-67
2023/03/24 03:29:32;;;;;;;0.50;0.50;;;;;;;;;;5052968;28;20036;-67
2023/03/24 03:32:06;;;;;;;0.20;0.20;;;;;;;;;;5052814;28;20029;-67
2023/03/24 03:34:54;;;;;;;0.85;0.85;;;;;;;;;;5052630;28;20029;-67
2023/03/24 03:37:37;;;;;;;0.20;0.20;;;;;;;;;;5051515;28;20025;-68
2023/03/24 03:40:10;;;;;;;0.20;0.20;;;;;;;;;;5052702;28;20079;-68
2023/03/24 03:42:36;;;;;;;0.30;0.30;;;;;;;;;;5052688;28;20048;-67
2023/03/24 03:45:03;;;;;;;0.30;0.30;;;;;;;;;;5052634;28;20025;-67
2023/03/24 03:47:30;;;;;;;1.70;1.10;;;;;;;;;;5052600;28;20033;-67
2023/03/24 03:49:56;;;;;;;0.30;0.30;;;;;;;;;;5052496;28;20068;-67
2023/03/24 03:52:22;;;;;;;0.30;0.30;;;;;;;;;;5051366;28;20094;-68
2023/03/24 03:54:49;;;;;;;0.30;0.30;;;;;;;;;;5052192;28;20028;-68
2023/03/24 03:57:16;;;;;;;0.20;0.20;;;;;;;;;;5052469;28;20104;-67
2023/03/24 03:59:42;;;;;;;0.30;0.30;;;;;;;;;;5052151;28;20615;-68
2023/03/24 04:02:27;;;;;;;0.40;0.40;;;;;;;;;;5052286;28;20116;-68
2023/03/24 04:05:00;;;;;;;0.20;0.20;;;;;;;;;;5052243;28;20036;-68
2023/03/24 04:07:27;;;;;;;1.20;1.15;;;;;;;;;;5052197;28;20079;-68
2023/03/24 04:09:56;;;;;;;0.30;0.30;;;;;;;;;;5048682;28;20926;-68
2023/03/24 04:12:34;;;;;;;0.25;0.25;;;;;;;;;;5032097;28;20104;-68
2023/03/24 04:15:17;;;;;;;0.30;0.30;;;;;;;;;;5032184;28;20108;-68
2023/03/24 04:17:52;;;;;;;0.20;0.20;;;;;;;;;;5032149;28;20025;-68
2023/03/24 04:20:18;;;;;;;0.30;0.30;;;;;;;;;;5032151;28;20168;-67
2023/03/24 04:23:03;;;;;;;0.20;0.20;;;;;;;;;;5032125;28;20120;-68
2023/03/24 04:25:57;;;;;;;2.08;1.20;;;;;;;;;;5034179;28;20469;-67
2023/03/24 04:28:25;;;;;;;0.20;0.20;;;;;;;;;;5051792;28;20604;-68
2023/03/24 04:31:02;;;;;;;0.28;0.28;;;;;;;;;;5051800;28;20013;-67
2023/03/24 04:33:57;;;;;;;0.30;0.30;;;;;;;;;;5050394;28;20029;-68
2023/03/24 04:36:28;;;;;;;0.22;0.22;;;;;;;;;;5050544;28;20076;-68
2023/03/24 04:38:56;;;;;;;0.75;0.75;;;;;;;;;;5051681;28;20163;-68
2023/03/24 04:41:24;;;;;;;0.20;0.20;;;;;;;;;;5049488;28;20029;-67
2023/03/24 04:43:51;;;;;;;0.20;0.20;;;;;;;;;;5051733;28;20120;-69
2023/03/24 04:46:17;;;;;;;0.20;0.20;;;;;;;;;;5050311;28;20373;-67
2023/03/24 04:48:46;;;;;;;0.20;0.20;;;;;;;;;;5051552;28;20025;-68
2023/03/24 04:51:13;;;;;;;0.20;0.20;;;;;;;;;;5051415;28;20044;-67
2023/03/24 04:53:39;;;;;;;1.35;1.25;;;;;;;;;;5051370;28;20025;-67
2023/03/24 04:56:05;;;;;;;0.28;0.28;;;;;;;;;;5051136;28;20036;-67
2023/03/24 04:58:31;;;;;;;0.20;0.20;;;;;;;;;;5051105;28;20024;-67
2023/03/24 05:00:57;;;;;;;4.82;2.78;;;;;;;;;;5032054;28;20042;-67
2023/03/24 05:03:24;;;;;;;1.75;1.20;;;;;;;;;;5031643;28;20022;-68
2023/03/24 05:05:51;;;;;;;0.30;0.30;;;;;;;;;;5031453;28;20033;-67
2023/03/24 05:08:17;;;;;;;0.25;0.25;;;;;;;;;;5031158;28;20417;-67
2023/03/24 05:10:44;;;;;;;0.93;0.93;;;;;;;;;;5031131;28;20025;-67
2023/03/24 05:13:10;;;;;;;11.40;4.78;;;;;;;;;;5031323;28;20044;-69
2023/03/24 05:15:36;;;;;;;0.30;0.30;;;;;;;;;;5043705;28;20074;-69
2023/03/24 05:18:03;;;;;;;3.35;2.90;;;;;;;;;;5050880;28;20032;-67
2023/03/24 05:20:29;;;;;;;6.43;4.18;;;;;;;;;;5050743;28;20378;-68
2023/03/24 05:22:55;;;;;;;0.20;0.20;;;;;;;;;;5051246;28;20021;-68
2023/03/24 05:25:21;;;;;;;1.95;1.85;;;;;;;;;;5051094;28;20025;-67
2023/03/24 05:27:47;;;;;;;0.20;0.20;;;;;;;;;;5050885;28;20017;-68
2023/03/24 05:30:14;;;;;;;8.77;1.05;;;;;;;;;;5050863;28;20031;-68
2023/03/24 05:32:40;;;;;;;0.20;0.20;;;;;;;;;;5049771;28;20025;-67
2023/03/24 05:35:07;;;;;;;0.20;0.20;;;;;;;;;;5050996;28;20032;-67
2023/03/24 05:37:33;;;;;;;0.30;0.30;;;;;;;;;;5050905;28;20056;-68
2023/03/24 05:39:59;;;;;;;0.30;0.30;;;;;;;;;;5050644;28;20473;-67
2023/03/24 05:42:25;;;;;;;0.30;0.30;;;;;;;;;;5050908;28;20036;-68
2023/03/24 05:44:51;;;;;;;0.28;0.28;;;;;;;;;;5049659;28;20090;-68
2023/03/24 05:47:19;;;;;;;0.35;0.35;;;;;;;;;;5049473;28;20029;-69
2023/03/24 05:49:49;;;;;;;3.58;1.70;;;;;;;;;;5049492;28;20029;-68
2023/03/24 05:52:15;;;;;;;2.45;2.35;;;;;;;;;;5050802;28;20033;-67
2023/03/24 05:54:42;;;;;;;0.30;0.30;;;;;;;;;;5050657;28;20029;-67
2023/03/24 05:57:11;;;;;;;0.28;0.28;;;;;;;;;;5050643;28;20163;-67
2023/03/24 05:59:38;;;;;;;0.28;0.28;;;;;;;;;;5050399;28;20040;-68
2023/03/24 06:02:04;;;;;;;0.30;0.30;;;;;;;;;;5050601;28;20029;-68
2023/03/24 06:04:30;;;;;;;0.30;0.30;;;;;;;;;;5049289;28;20040;-67
2023/03/24 06:07:00;;;;;;;0.22;0.22;;;;;;;;;;5050559;28;20029;-67
2023/03/24 06:09:31;;;;;;;0.20;0.20;;;;;;;;;;5053877;28;20025;-68
2023/03/24 06:11:58;;;;;;;0.30;0.30;;;;;;;;;;5054579;28;20021;-67
2023/03/24 06:14:24;;;;;;;0.20;0.20;;;;;;;;;;5054288;28;20065;-67
2023/03/24 06:16:50;;;;;;;0.30;0.30;;;;;;;;;;5053042;28;20367;-68
2023/03/24 06:19:17;;;;;;;0.20;0.20;;;;;;;;;;5053941;28;20509;-68
2023/03/24 06:21:49;;;;;;;0.30;0.30;;;;;;;;;;5044949;28;20063;-68
2023/03/24 06:24:15;;;;;;;3.30;1.65;;;;;;;;;;5054153;28;20031;-67
2023/03/24 06:26:43;;;;;;;0.20;0.20;;;;;;;;;;5054117;28;20036;-68
2023/03/24 06:29:09;;;;;;;1.23;1.13;;;;;;;;;;5052740;28;20464;-67
2023/03/24 06:31:36;;;;;;;0.30;0.30;;;;;;;;;;5054112;28;20029;-67
2023/03/24 06:34:03;;;;;;;0.20;0.20;;;;;;;;;;5053927;28;20059;-68
2023/03/24 06:36:29;;;;;;;0.22;0.22;;;;;;;;;;5052654;28;20021;-68
2023/03/24 06:38:55;;;;;;;0.43;0.43;;;;;;;;;;5054044;28;20439;-68
2023/03/24 06:41:22;;;;;;;0.30;0.30;;;;;;;;;;5053883;28;20029;-69
2023/03/24 06:43:48;;;;;;;0.30;0.30;;;;;;;;;;5054041;28;20100;-68
2023/03/24 06:46:14;;;;;;;0.30;0.30;;;;;;;;;;5053898;28;20060;-69
2023/03/24 06:48:40;;;;;;;0.90;0.90;;;;;;;;;;5053937;28;20052;-68
2023/03/24 06:51:06;;;;;;;0.93;0.93;;;;;;;;;;5053986;28;20028;-69
2023/03/24 06:53:32;;;;;;;0.30;0.30;;;;;;;;;;5041122;28;20453;-68
2023/03/24 06:55:58;;;;;;;2.22;0.68;;;;;;;;;;5033778;28;20092;-67
2023/03/24 06:58:25;;;;;;;0.20;0.20;;;;;;;;;;5052076;28;20564;-68
2023/03/24 07:00:52;;;;;;;0.20;0.20;;;;;;;;;;5053310;28;20135;-69
2023/03/24 07:03:21;;;;;;;0.20;0.20;;;;;;;;;;5053804;28;20491;-70
2023/03/24 07:05:47;;;;;;;0.20;0.20;;;;;;;;;;5053436;28;20025;-69
2023/03/24 07:08:13;;;;;;;0.20;0.20;;;;;;;;;;5053155;28;20071;-70
2023/03/24 07:10:39;;;;;;;3.67;3.35;;;;;;;;;;5052018;28;20028;-70
2023/03/24 07:13:06;;;;;;;1.80;0.73;;;;;;;;;;5051945;28;20048;-68
2023/03/24 07:15:32;;;;;;;2.05;1.95;;;;;;;;;;5051391;28;20021;-69
2023/03/24 07:17:58;;;;;;;0.40;0.40;;;;;;;;;;5051010;28;20025;-69
2023/03/24 07:20:25;;;;;;;1.92;1.83;;;;;;;;;;5050817;28;20111;-70
2023/03/24 07:22:51;;;;;;;0.30;0.30;;;;;;;;;;5051105;28;20021;-69
2023/03/24 07:25:20;;;;;;;2.10;2.00;;;;;;;;;;5051295;28;20037;-69
2023/03/24 07:27:46;;;;;;;0.22;0.22;;;;;;;;;;5050113;28;20271;-70
2023/03/24 07:30:12;;;;;;;0.30;0.30;;;;;;;;;;5051038;28;20029;-69
2023/03/24 07:32:39;;;;;;;0.50;0.50;;;;;;;;;;5045825;28;20033;-70
2023/03/24 07:35:09;;;;;;;0.20;0.20;;;;;;;;;;5036494;28;20040;-68
2023/03/24 07:37:36;;;;;;;0.20;0.20;;;;;;;;;;5046375;28;20028;-69
2023/03/24 07:40:05;;;;;;;0.30;0.30;;;;;;;;;;5030153;28;20117;-70
2023/03/24 07:42:31;;;;;;;0.20;0.20;;;;;;;;;;5019662;28;20099;-68
2023/03/24 07:44:58;;;;;;;0.57;0.57;;;;;;;;;;5026029;28;20385;-69
2023/03/24 07:47:24;;;;;;;0.20;0.20;;;;;;;;;;5020967;28;20634;-69
2023/03/24 07:49:50;;;;;;;1.00;1.00;;;;;;;;;;5018947;28;20029;-68
2023/03/24 07:52:16;;;;;;;0.30;0.30;;;;;;;;;;5019856;28;20028;-68
2023/03/24 07:54:42;;;;;;;3.13;2.15;;;;;;;;;;5018612;28;20539;-68
2023/03/24 07:57:08;;;;;;;0.30;0.30;;;;;;;;;;5018619;28;20021;-68
2023/03/24 07:59:35;;;;;;;0.30;0.30;;;;;;;;;;5020598;28;20037;-68
2023/03/24 08:02:01;;;;;;;0.30;0.30;;;;;;;;;;5018697;28;20032;-68
2023/03/24 08:04:27;;;;;;;0.20;0.20;;;;;;;;;;5020275;28;20033;-68
2023/03/24 08:06:53;;;;;;;0.95;0.95;;;;;;;;;;5019390;28;20086;-68
2023/03/24 08:09:22;;;;;;;0.20;0.20;;;;;;;;;;5018518;28;20052;-68
2023/03/24 08:11:49;;;;;;;0.50;0.50;;;;;;;;;;5019440;28;20032;-67
2023/03/24 08:14:15;;;;;;;0.75;0.75;;;;;;;;;;5020498;28;20312;-68
2023/03/24 08:16:41;;;;;;;0.30;0.30;;;;;;;;;;5018247;28;20117;-68
2023/03/24 08:19:07;;;;;;;1.25;1.17;;;;;;;;;;5020317;28;20216;-67
2023/03/24 08:21:34;;;;;;;3.53;2.35;;;;;;;;;;5028763;28;20033;-68
2023/03/24 08:24:00;;;;;;;0.20;0.20;;;;;;;;;;5031616;28;20068;-68
2023/03/24 08:26:26;;;;;;;0.85;0.85;;;;;;;;;;5032163;28;20033;-67
2023/03/24 08:28:52;;;;;;;0.25;0.25;;;;;;;;;;5031521;28;20022;-68
2023/03/24 08:31:18;;;;;;;0.30;0.30;;;;;;;;;;5031060;28;20022;-67
2023/03/24 08:33:45;;;;;;;0.60;0.60;;;;;;;;;;5050336;28;20075;-67
2023/03/24 08:36:11;;;;;;;4.65;4.22;;;;;;;;;;5051457;28;20068;-69
2023/03/24 08:38:37;;;;;;;1.65;1.55;;;;;;;;;;5051435;28;20021;-68
2023/03/24 08:41:05;;;;;;;3.40;1.88;;;;;;;;;;5051550;28;20036;-69
2023/03/24 08:43:32;;;;;;;0.20;0.20;;;;;;;;;;5051506;28;20025;-68
2023/03/24 08:45:58;;;;;;;3.78;1.80;;;;;;;;;;5051757;28;20060;-68
2023/03/24 08:48:25;;;;;;;0.30;0.30;;;;;;;;;;5050626;28;20021;-70
2023/03/24 08:50:51;;;;;;;0.30;0.30;;;;;;;;;;5051382;28;20135;-68
2023/03/24 08:53:17;;;;;;;0.30;0.30;;;;;;;;;;5051631;28;20025;-67
2023/03/24 08:55:44;;;;;;;0.30;0.30;;;;;;;;;;5051367;28;20100;-68
2023/03/24 08:58:14;;;;;;;0.30;0.30;;;;;;;;;;5051408;28;20519;-69
2023/03/24 09:00:40;;;;;;;0.20;0.20;;;;;;;;;;5051302;28;20112;-69
2023/03/24 09:03:06;;;;;;;0.98;0.98;;;;;;;;;;5050727;28;20025;-67
2023/03/24 09:05:33;;;;;;;0.50;0.50;;;;;;;;;;5031740;28;20037;-69
2023/03/24 09:08:00;;;;;;;0.30;0.30;;;;;;;;;;5031453;28;20100;-68
2023/03/24 09:10:26;;;;;;;0.25;0.25;;;;;;;;;;5031137;28;20470;-68
2023/03/24 09:12:52;;;;;;;0.30;0.30;;;;;;;;;;5031279;28;20030;-69
2023/03/24 09:15:18;;;;;;;0.30;0.30;;;;;;;;;;5031335;28;20100;-67
2023/03/24 09:17:44;;;;;;;0.28;0.28;;;;;;;;;;5031376;28;20025;-69
2023/03/24 09:20:13;;;;;;;0.43;0.43;;;;;;;;;;5030863;28;20059;-69
2023/03/24 09:22:40;;;;;;;0.30;0.30;;;;;;;;;;5031181;28;20033;-67
2023/03/24 09:25:06;;;;;;;1.77;1.67;;;;;;;;;;5030904;28;20041;-67
2023/03/24 09:27:33;;;;;;;3.67;1.58;;;;;;;;;;5031120;28;20069;-69
2023/03/24 09:29:59;;;;;;;0.30;0.30;;;;;;;;;;5030947;28;20052;-68
2023/03/24 09:32:25;;;;;;;1.38;0.88;;;;;;;;;;5032761;28;20067;-68
2023/03/24 09:34:51;;;;;;;3.40;1.50;;;;;;;;;;5048725;28;20029;-69
2023/03/24 09:37:17;;;;;;;1.65;1.55;;;;;;;;;;5050718;28;20029;-68
2023/03/24 09:39:43;;;;;;;1.00;0.93;;;;;;;;;;5050697;28;20039;-68
2023/03/24 09:42:14;;;;;;;1.05;1.05;;;;;;;;;;5052274;28;20024;-68
2023/03/24 09:44:43;;;;;;;0.30;0.30;;;;;;;;;;5054893;28;20028;-67
2023/03/24 09:47:21;;;;;;;0.20;0.20;;;;;;;;;;5055065;28;20044;-68
2023/03/24 09:49:48;;;;;;;0.28;0.28;;;;;;;;;;5053845;28;20024;-67
2023/03/24 09:52:17;;;;;;;0.52;0.52;;;;;;;;;;5054797;28;20021;-68
2023/03/24 09:54:50;;;;;;;0.30;0.30;;;;;;;;;;5054694;28;20105;-66
2023/03/24 09:57:20;;;;;;;0.63;0.63;;;;;;;;;;5054548;28;20024;-68
2023/03/24 09:59:46;;;;;;;0.30;0.30;;;;;;;;;;5054621;28;20080;-67
2023/03/24 10:02:13;;;;;;;0.20;0.20;;;;;;;;;;5054626;28;20025;-67
2023/03/24 10:04:39;;;;;;;4.90;2.80;;;;;;;;;;5054535;28;20059;-66
2023/03/24 10:07:05;;;;;;;4.50;2.05;;;;;;;;;;5053194;28;20036;-67
2023/03/24 10:09:33;;;;;;;1.70;1.27;;;;;;;;;;5029803;28;20041;-66
2023/03/24 10:12:02;;;;;;;0.17;0.17;;;;;;;;;;5026090;28;20040;-67
2023/03/24 10:14:48;;;;;;;14.25;3.70;;;;;;;;;;5024156;28;20036;-67
2023/03/24 10:17:14;;;;;;;3.05;2.85;;;;;;;;;;5026186;28;20154;-65
2023/03/24 10:20:16;;;;;;;0.50;0.50;;;;;;;;;;5023670;28;20049;-66
2023/03/24 10:22:45;;;;;;;3.10;1.38;;;;;;;;;;5014257;28;20044;-67
2023/03/24 10:25:24;;;;;;;0.70;0.70;;;;;;;;;;5024708;28;20038;-66
2023/03/24 10:28:15;;;;;;;0.20;0.20;;;;;;;;;;5026239;28;20033;-66
2023/03/24 10:30:42;;;;;;;0.30;0.30;;;;;;;;;;5024274;28;20512;-67
2023/03/24 10:33:12;;;;;;;0.82;0.82;;;;;;;;;;5028938;28;20033;-65
2023/03/24 10:35:43;;;;;;;0.30;0.30;;;;;;;;;;5025293;28;20028;-68
2023/03/24 10:38:28;;;;;;;0.20;0.20;;;;;;;;;;5025397;28;20075;-67
2023/03/24 10:40:54;;;;;;;0.20;0.20;;;;;;;;;;5027714;28;20033;-66
2023/03/24 10:43:22;;;;;;;0.28;0.28;;;;;;;;;;5024440;28;20021;-65
2023/03/24 10:45:49;;;;;;;0.20;0.20;;;;;;;;;;5025027;28;20040;-67
2023/03/24 10:48:33;;;;;;;0.28;0.28;;;;;;;;;;5024475;28;20108;-66
2023/03/24 10:50:59;;;;;;;0.20;0.20;;;;;;;;;;5029330;28;20052;-65
2023/03/24 10:53:26;;;;;;;0.20;0.20;;;;;;;;;;5023260;28;20035;-66
2023/03/24 10:55:52;;;;;;;2.15;2.00;;;;;;;;;;5026432;28;20033;-66
2023/03/24 10:58:28;;;;;;;0.88;0.88;;;;;;;;;;5027529;28;20025;-66
2023/03/24 11:00:55;;;;;;;2.53;0.63;;;;;;;;;;5026053;28;20112;-66
2023/03/24 11:03:26;;;;;;;0.30;0.30;;;;;;;;;;5025426;28;20026;-66
2023/03/24 11:05:57;;;;;;;4.22;1.95;;;;;;;;;;5026489;28;20076;-66
2023/03/24 11:08:34;;;;;;;0.25;0.25;;;;;;;;;;5025370;28;20052;-65
2023/03/24 11:11:00;;;;;;;0.20;0.20;;;;;;;;;;5026815;28;20032;-66
2023/03/24 11:13:31;;;;;;;0.30;0.30;;;;;;;;;;5026060;28;21095;-66
2023/03/24 11:16:05;;;;;;;1.20;1.17;;;;;;;;;;5023437;28;21535;-66
2023/03/24 11:18:31;;;;;;;0.20;0.20;;;;;;;;;;5023963;28;20107;-67
2023/03/24 11:21:04;;;;;;;0.20;0.20;;;;;;;;;;5024313;28;21241;-66
2023/03/24 11:23:34;;;;;;;0.20;0.20;;;;;;;;;;5023284;28;20026;-65
2023/03/24 11:26:03;;;;;;;0.40;0.40;;;;;;;;;;5027807;28;20037;-65
2023/03/24 11:28:35;;;;;;;5.18;1.83;;;;;;;;;;5026375;28;20108;-66
2023/03/24 11:31:05;;;;;;;0.30;0.30;;;;;;;;;;5022191;28;20257;-65
2023/03/24 11:33:32;;;;;;;0.20;0.20;;;;;;;;;;5021951;28;20045;-66
2023/03/24 11:36:00;;;;;;;1.48;1.38;;;;;;;;;;5026772;28;20641;-65
2023/03/24 11:38:30;;;;;;;1.02;0.70;;;;;;;;;;5023940;28;20587;-65
2023/03/24 11:40:58;;;;;;;1.25;1.15;;;;;;;;;;5031895;28;20087;-66
2023/03/24 11:43:26;;;;;;;1.08;1.08;;;;;;;;;;5058897;28;20709;-65
2023/03/24 11:46:07;;;;;;;3.53;1.33;;;;;;;;;;5040130;28;20028;-66
2023/03/24 11:48:54;;;;;;;0.20;0.20;;;;;;;;;;5051342;28;20041;-68
2023/03/24 11:51:27;;;;;;;3.72;0.85;;;;;;;;;;5041928;28;20025;-64
2023/03/24 11:53:55;;;;;;;0.20;0.20;;;;;;;;;;5036051;28;20069;-66
2023/03/24 11:56:27;;;;;;;0.20;0.20;;;;;;;;;;5030468;28;20512;-65
2023/03/24 11:59:00;;;;;;;1.00;1.00;;;;;;;;;;5032665;28;20030;-65
2023/03/24 12:01:37;;;;;;;0.30;0.30;;;;;;;;;;5047748;28;20033;-66
2023/03/24 12:04:23;;;;;;;1.65;1.55;;;;;;;;;;5046435;28;20071;-66
2023/03/24 12:06:55;;;;;;;0.20;0.20;;;;;;;;;;5020916;28;20052;-65
2023/03/24 12:09:21;;;;;;;0.30;0.30;;;;;;;;;;5046051;28;20539;-64
2023/03/24 12:12:00;;;;;;;0.20;0.20;;;;;;;;;;5027986;28;20021;-65
2023/03/24 12:14:46;;;;;;;0.20;0.20;;;;;;;;;;5041062;28;20491;-66
2023/03/24 12:17:12;;;;;;;1.95;1.85;;;;;;;;;;5051894;28;20032;-65
2023/03/24 12:19:48;;;;;;;0.30;0.30;;;;;;;;;;5041361;28;20120;-66
2023/03/24 12:22:14;;;;;;;0.35;0.35;;;;;;;;;;5032322;28;20035;-65
2023/03/24 12:24:59;;;;;;;0.20;0.20;;;;;;;;;;5040768;28;20025;-66
2023/03/24 12:27:33;;;;;;;0.90;0.65;;;;;;;;;;5071826;28;20024;-65
2023/03/24 12:30:00;;;;;;;3.50;2.53;;;;;;;;;;5049756;28;20137;-65
2023/03/24 12:32:26;;;;;;;1.75;1.40;;;;;;;;;;5038639;28;20055;-65
2023/03/24 12:35:20;;;;;;;0.52;0.52;;;;;;;;;;5049865;28;20108;-64
2023/03/24 12:37:46;;;;;;;0.20;0.20;;;;;;;;;;5065529;28;20463;-66
2023/03/24 12:40:15;;;;;;;0.30;0.30;;;;;;;;;;5051295;28;20553;-66
2023/03/24 12:42:41;;;;;;;0.20;0.20;;;;;;;;;;5049067;28;20037;-65
2023/03/24 12:45:26;;;;;;;0.73;0.55;;;;;;;;;;5035762;28;20026;-65
2023/03/24 12:47:52;;;;;;;0.35;0.35;;;;;;;;;;5035638;28;20038;-66
2023/03/24 12:50:30;;;;;;;1.98;0.73;;;;;;;;;;5024062;28;20654;-65
2023/03/24 12:52:59;;;;;;;8.57;1.88;;;;;;;;;;5028807;28;20394;-66
2023/03/24 12:55:30;;;;;;;0.68;0.68;;;;;;;;;;5043991;28;20469;-65
2023/03/24 12:57:59;;;;;;;5.70;1.95;;;;;;;;;;5038314;28;20025;-66
2023/03/24 13:00:27;;;;;;;13.05;0.73;;;;;;;;;;5031311;28;20033;-65
2023/03/24 13:02:58;;;;;;;0.20;0.20;;;;;;;;;;5047854;28;20021;-65
2023/03/24 13:05:30;;;;;;;0.20;0.20;;;;;;;;;;5043265;28;20029;-67
2023/03/24 13:07:58;;;;;;;0.20;0.20;;;;;;;;;;5022785;28;20107;-65
2023/03/24 13:10:29;;;;;;;0.70;0.70;;;;;;;;;;5021316;28;20761;-65
2023/03/24 13:13:10;;;;;;;1.50;1.40;;;;;;;;;;5022725;28;20060;-66
2023/03/24 13:15:42;;;;;;;0.20;0.20;;;;;;;;;;5024054;28;20052;-65
2023/03/24 13:18:09;;;;;;;0.38;0.38;;;;;;;;;;5021479;28;20548;-66
2023/03/24 13:20:43;;;;;;;2.85;2.65;;;;;;;;;;5021237;28;20638;-65
2023/03/24 13:23:26;;;;;;;2.08;1.17;;;;;;;;;;5024070;28;20476;-66
2023/03/24 13:25:55;;;;;;;1.75;0.95;;;;;;;;;;5021075;28;20037;-66
2023/03/24 13:28:28;;;;;;;0.20;0.20;;;;;;;;;;5021042;28;20163;-67
2023/03/24 13:30:54;;;;;;;0.30;0.30;;;;;;;;;;5025420;28;20030;-66
2023/03/24 13:33:22;;;;;;;0.52;0.52;;;;;;;;;;5041346;28;20017;-67
2023/03/24 13:36:07;;;;;;;20.17;1.33;;;;;;;;;;5049479;28;20493;-67
2023/03/24 13:38:36;;;;;;;0.60;0.60;;;;;;;;;;5049975;28;20025;-67
2023/03/24 13:41:04;;;;;;;0.20;0.20;;;;;;;;;;5039044;28;20029;-65
2023/03/24 13:43:31;;;;;;;0.50;0.50;;;;;;;;;;5031080;28;20044;-66
2023/03/24 13:46:00;;;;;;;0.20;0.20;;;;;;;;;;5030668;28;20026;-65
2023/03/24 13:48:40;;;;;;;0.40;0.40;;;;;;;;;;5030855;28;20056;-66
2023/03/24 13:51:19;;;;;;;0.82;0.82;;;;;;;;;;5030819;28;20021;-67
2023/03/24 13:53:45;;;;;;;0.20;0.20;;;;;;;;;;5031428;28;20053;-66
2023/03/24 13:56:12;;;;;;;1.15;1.05;;;;;;;;;;5048758;28;20397;-67
2023/03/24 13:58:46;;;;;;;0.20;0.20;;;;;;;;;;5050643;28;20396;-67
2023/03/24 14:01:12;;;;;;;0.20;0.20;;;;;;;;;;5050519;28;20037;-67
2023/03/24 14:03:39;;;;;;;0.38;0.38;;;;;;;;;;5035208;28;20493;-67
2023/03/24 14:06:07;;;;;;;21.75;3.55;;;;;;;;;;5030772;28;20644;-67
2023/03/24 14:08:42;;;;;;;19.35;3.03;;;;;;;;;;5030626;28;20515;-66
2023/03/24 14:11:27;;;;;;;16.42;2.67;;;;;;;;;;5038374;28;20381;-67
2023/03/24 14:13:53;;;;;;;14.75;2.88;;;;;;;;;;5042517;28;20083;-67
2023/03/24 14:16:27;;;;;;;17.92;2.90;;;;;;;;;;5033658;28;20022;-67
2023/03/24 14:19:07;;;;;;;20.27;2.40;;;;;;;;;;5040105;28;20053;-67
2023/03/24 14:21:33;;;;;;;22.55;3.78;;;;;;;;;;5050642;28;20040;-67
2023/03/24 14:24:02;;;;;;;16.92;3.40;;;;;;;;;;5050640;28;20017;-68
2023/03/24 14:26:32;;;;;;;23.45;4.20;;;;;;;;;;5050750;28;20025;-67
2023/03/24 14:28:59;;;;;;;21.63;2.90;;;;;;;;;;5052054;28;20017;-68
2023/03/24 14:31:29;;;;;;;17.25;2.85;;;;;;;;;;5054554;28;20024;-67
2023/03/24 14:34:04;;;;;;;27.65;3.78;;;;;;;;;;5053172;28;20039;-66
2023/03/24 14:36:38;;;;;;;20.60;3.08;;;;;;;;;;5054364;28;20260;-67
2023/03/24 14:39:27;;;;;;;22.30;3.13;;;;;;;;;;5053754;28;20025;-68
2023/03/24 14:41:53;;;;;;;30.10;3.45;;;;;;;;;;5032640;28;20042;-67
2023/03/24 14:44:38;;;;;;;23.85;3.28;;;;;;;;;;5033794;28;20029;-67
2023/03/24 14:47:04;;;;;;;16.92;2.97;;;;;;;;;;5034030;28;20021;-66
2023/03/24 14:49:31;;;;;;;22.10;3.10;;;;;;;;;;5033866;28;20105;-65
2023/03/24 14:52:16;;;;;;;26.75;3.55;;;;;;;;;;5033550;28;20021;-67
2023/03/24 14:54:53;;;;;;;12.73;2.10;;;;;;;;;;5049412;28;20039;-67
2023/03/24 14:57:25;;;;;;;25.70;4.13;;;;;;;;;;5053779;28;20108;-67
2023/03/24 14:59:59;;;;;;;19.30;2.97;;;;;;;;;;5052195;28;20477;-67